Main page
METAR-TAF:

METAR-TAF

Airports :

Brescia Ghedi, Italy

Ghedi Air Base

latitude: 45-25N, longitude: 010-17E, elevation: 102 m

Current weather observation

The report was made 51 minutes ago, at 09:55 UTC
Temperature 3°C
Humidity 93%
Pressure 1007 hPa
Visibility 10 km or more
Scattered clouds at a height of 8000 ft

METAR: LIPL 160955Z /////KT 9999 SCT080 03/02 Q1007 RMK BKN SCT120 VIS MIN 9999 WIND THR31 36001KT BLU

Time: 11:46 (10:46 UTC)

Forecast

The report was made 2 hours and 46 minutes ago, at 08:00 UTC
Forecast valid from 16 at 09 UTC to 16 at 18 UTC
Wind 5 kt from variable directions
Visibility: 6000 m
Scattered clouds at a height of 3000 ft
Becoming
from 16 at 14 UTC to 16 at 16 UTC
Visibility: 1200 m
mist

TAF: LIPL 160800Z 1609/1618 VRB05KT 6000 SCT030 BECMG 1614/1616 1200 BR

Weather observations and forecasts of more than 4000 airports (METAR and TAF reports).

The available stations are represented by yellow and red dots on the map.

Hover mouse over dot to see the name of the station.

Then click to see weather observations and forecasts.

To change the map : click on the green buttons with a black cross to zoom in, on the green button with a dash to zoom out, or on the green arrows for adjacent maps.


METAR-TAF: